createdAt,value
2018-05-02T00:00:19.925Z,5.11
2018-05-02T00:01:19.833Z,5.11
2018-05-02T00:02:19.734Z,5.17
2018-05-02T00:03:19.637Z,5.17
2018-05-02T00:04:19.585Z,5.19
2018-05-02T00:05:19.446Z,5.14
2018-05-02T00:06:19.350Z,5.23
2018-05-02T00:07:19.256Z,5.22
2018-05-02T00:08:19.157Z,5.17
2018-05-02T00:09:19.092Z,5.26
2018-05-02T00:10:18.965Z,5.30
2018-05-02T00:11:18.927Z,5.37
2018-05-02T00:12:18.774Z,5.32
2018-05-02T00:13:18.683Z,5.42
2018-05-02T00:14:18.614Z,5.44
2018-05-02T00:15:18.483Z,5.44
2018-05-02T00:16:18.390Z,5.45
2018-05-02T00:17:18.295Z,5.44
2018-05-02T00:18:18.196Z,5.49
2018-05-02T00:19:18.132Z,5.47
2018-05-02T00:20:18.004Z,5.41
2018-05-02T00:21:17.988Z,5.55
2018-05-02T00:22:17.816Z,5.56
2018-05-02T00:23:17.730Z,5.56
2018-05-02T00:24:17.652Z,5.59
2018-05-02T00:25:17.522Z,5.65
2018-05-02T00:26:17.426Z,5.58
2018-05-02T00:27:17.333Z,5.73
2018-05-02T00:28:17.243Z,5.65
2018-05-02T00:29:17.171Z,5.75
2018-05-02T00:30:17.043Z,5.74
2018-05-02T00:31:16.949Z,5.73
2018-05-02T00:32:16.852Z,5.69
2018-05-02T00:33:16.771Z,5.75
2018-05-02T00:34:16.666Z,5.80
2018-05-02T00:35:16.594Z,5.78
2018-05-02T00:36:16.470Z,5.90
2018-05-02T00:37:16.379Z,5.83
2018-05-02T00:38:16.282Z,5.84
2018-05-02T00:39:16.186Z,5.96
2018-05-02T00:40:16.120Z,5.88
2018-05-02T00:41:15.991Z,5.95
2018-05-02T00:42:15.900Z,5.87
2018-05-02T00:43:15.802Z,5.77
2018-05-02T00:44:15.708Z,5.90
2018-05-02T00:45:15.643Z,5.90
2018-05-02T00:46:15.516Z,5.93
2018-05-02T00:47:15.420Z,5.81
2018-05-02T00:48:15.324Z,5.87
2018-05-02T00:49:15.229Z,5.95
2018-05-02T00:50:15.163Z,5.88
2018-05-02T00:51:15.041Z,5.96
2018-05-02T00:52:14.941Z,5.96
2018-05-02T00:53:14.847Z,5.96
2018-05-02T00:54:14.753Z,5.99
2018-05-02T00:55:14.685Z,6.10
2018-05-02T00:56:14.559Z,6.13
2018-05-02T00:57:14.465Z,6.24
2018-05-02T00:58:14.371Z,6.24
2018-05-02T00:59:14.276Z,6.27
2018-05-02T01:00:14.209Z,6.24
2018-05-02T01:01:14.087Z,6.40
2018-05-02T01:02:13.988Z,6.63
2018-05-02T01:03:13.911Z,6.72
2018-05-02T01:04:13.801Z,6.89
2018-05-02T01:05:13.735Z,7.00
2018-05-02T01:06:13.608Z,7.11
2018-05-02T01:07:13.514Z,7.16
2018-05-02T01:08:13.416Z,7.23
2018-05-02T01:09:13.324Z,7.33
2018-05-02T01:10:13.259Z,7.24
2018-05-02T01:11:13.131Z,7.33
2018-05-02T01:12:13.039Z,7.34
2018-05-02T01:13:12.956Z,7.30
2018-05-02T01:14:12.849Z,7.15
2018-05-02T01:15:12.781Z,7.11
2018-05-02T01:16:12.656Z,7.08
2018-05-02T01:17:12.561Z,7.00
2018-05-02T01:18:12.565Z,6.93
2018-05-02T01:19:12.374Z,6.89
2018-05-02T01:20:12.317Z,6.72
2018-05-02T01:21:12.183Z,6.68
2018-05-02T01:22:12.088Z,6.61
2018-05-02T01:23:12.004Z,6.69
2018-05-02T01:24:11.905Z,6.63
2018-05-02T01:25:11.936Z,6.58
2018-05-02T01:26:11.706Z,6.63
2018-05-02T01:27:11.613Z,6.53
2018-05-02T01:28:11.519Z,6.54
2018-05-02T01:29:11.423Z,6.55
2018-05-02T01:30:11.358Z,6.55
2018-05-02T01:31:11.233Z,6.53
2018-05-02T01:32:11.235Z,6.53
2018-05-02T01:33:11.043Z,6.51
2018-05-02T01:34:10.951Z,6.54
2018-05-02T01:35:10.886Z,6.50
2018-05-02T01:36:10.757Z,6.51
2018-05-02T01:37:10.661Z,6.60
2018-05-02T01:38:10.571Z,6.60
2018-05-02T01:39:10.568Z,6.72
2018-05-02T01:40:10.411Z,6.90
2018-05-02T01:41:10.290Z,7.11
2018-05-02T01:42:10.190Z,7.24
2018-05-02T01:43:10.096Z,7.32
2018-05-02T01:44:09.999Z,7.50
2018-05-02T01:45:09.936Z,7.45
2018-05-02T01:46:09.908Z,7.60
2018-05-02T01:47:09.716Z,7.58
2018-05-02T01:48:09.623Z,7.66
2018-05-02T01:49:09.526Z,7.70
2018-05-02T01:50:09.438Z,7.74
2018-05-02T01:51:09.373Z,7.67
2018-05-02T01:52:09.246Z,7.67
2018-05-02T01:53:09.260Z,7.74
2018-05-02T01:54:09.053Z,7.76
2018-05-02T01:55:08.957Z,7.73
2018-05-02T01:56:08.895Z,7.74
2018-05-02T01:57:08.769Z,7.81
2018-05-02T01:58:08.675Z,7.73
2018-05-02T01:59:08.584Z,7.76
2018-05-02T02:00:08.676Z,7.71
2018-05-02T02:01:08.394Z,7.73
2018-05-02T02:02:08.327Z,7.63
2018-05-02T02:03:08.215Z,7.45
2018-05-02T02:04:08.112Z,7.54
2018-05-02T02:05:08.014Z,7.29
2018-05-02T02:06:07.917Z,7.24
2018-05-02T02:07:07.958Z,7.09
2018-05-02T02:08:07.730Z,6.91
2018-05-02T02:09:07.633Z,6.76
2018-05-02T02:10:07.540Z,6.61
2018-05-02T02:11:07.444Z,6.55
2018-05-02T02:12:07.350Z,6.57
2018-05-02T02:13:07.292Z,6.54
2018-05-02T02:14:07.275Z,6.38
2018-05-02T02:15:07.065Z,6.42
2018-05-02T02:16:06.974Z,6.30
2018-05-02T02:17:06.879Z,6.40
2018-05-02T02:18:06.818Z,6.33
2018-05-02T02:19:06.688Z,6.38
2018-05-02T02:20:06.595Z,6.32
2018-05-02T02:21:06.596Z,6.24
2018-05-02T02:22:06.407Z,6.27
2018-05-02T02:23:06.344Z,6.27
2018-05-02T02:24:06.216Z,6.19
2018-05-02T02:25:06.123Z,6.27
2018-05-02T02:26:06.026Z,6.19
2018-05-02T02:27:05.932Z,6.24
2018-05-02T02:28:05.841Z,6.27
2018-05-02T02:29:05.774Z,6.33
2018-05-02T02:30:05.648Z,6.24
2018-05-02T02:31:05.555Z,6.30
2018-05-02T02:32:05.467Z,6.30
2018-05-02T02:33:05.363Z,6.28
2018-05-02T02:34:05.338Z,6.30
2018-05-02T02:35:05.273Z,6.46
2018-05-02T02:36:05.082Z,6.45
2018-05-02T02:37:04.984Z,6.46
2018-05-02T02:38:04.890Z,6.43
2018-05-02T02:39:04.797Z,6.46
2018-05-02T02:40:04.729Z,6.45
2018-05-02T02:41:04.604Z,6.43
2018-05-02T02:42:04.511Z,6.42
2018-05-02T02:43:04.415Z,6.33
2018-05-02T02:44:04.321Z,6.39
2018-05-02T02:45:04.258Z,6.33
2018-05-02T02:46:04.132Z,6.30
2018-05-02T02:47:04.036Z,6.38
2018-05-02T02:48:03.943Z,6.30
2018-05-02T02:49:03.845Z,6.25
2018-05-02T02:50:03.791Z,6.28
2018-05-02T02:51:03.657Z,6.24
2018-05-02T02:52:03.561Z,6.24
2018-05-02T02:53:03.467Z,6.25
2018-05-02T02:54:03.372Z,6.14
2018-05-02T02:55:03.291Z,6.25
2018-05-02T02:56:03.214Z,6.28
2018-05-02T02:57:03.090Z,6.21
2018-05-02T02:58:02.993Z,6.19
2018-05-02T02:59:02.899Z,6.20
2018-05-02T03:00:02.804Z,6.14
2018-05-02T03:01:02.743Z,6.14
2018-05-02T03:02:02.616Z,6.05
2018-05-02T03:03:02.518Z,5.95
2018-05-02T03:04:02.425Z,5.95
2018-05-02T03:05:02.328Z,5.96
2018-05-02T03:06:02.233Z,5.93
2018-05-02T03:07:02.175Z,5.95
2018-05-02T03:08:02.043Z,5.95
2018-05-02T03:09:01.948Z,5.95
2018-05-02T03:10:01.853Z,5.88
2018-05-02T03:11:01.759Z,5.96
2018-05-02T03:12:01.710Z,5.95
2018-05-02T03:13:01.585Z,5.87
2018-05-02T03:14:01.472Z,5.92
2018-05-02T03:15:01.381Z,5.87
2018-05-02T03:16:01.291Z,5.90
2018-05-02T03:17:01.225Z,5.99
2018-05-02T03:18:01.097Z,5.83
2018-05-02T03:19:00.999Z,5.75
2018-05-02T03:20:00.902Z,5.78
2018-05-02T03:21:00.811Z,5.81
2018-05-02T03:22:00.716Z,5.67
2018-05-02T03:23:00.650Z,5.74
2018-05-02T03:24:00.526Z,5.66
2018-05-02T03:25:00.431Z,5.74
2018-05-02T03:26:00.336Z,5.67
2018-05-02T03:27:00.254Z,5.65
2018-05-02T03:28:00.170Z,5.69
2018-05-02T03:29:00.047Z,5.74
2018-05-02T03:29:59.952Z,5.85
2018-05-02T03:30:59.858Z,5.74
2018-05-02T03:31:59.759Z,5.81
2018-05-02T03:32:59.710Z,5.80
2018-05-02T03:33:59.575Z,5.70
2018-05-02T03:34:59.479Z,5.77
2018-05-02T03:35:59.382Z,5.81
2018-05-02T03:36:59.287Z,5.75
2018-05-02T03:37:59.193Z,5.73
2018-05-02T03:38:59.124Z,5.74
2018-05-02T03:39:59.001Z,5.67
2018-05-02T03:40:58.905Z,5.67
2018-05-02T03:41:58.813Z,5.67
2018-05-02T03:42:58.715Z,5.69
2018-05-02T03:43:58.653Z,5.75
2018-05-02T03:44:58.524Z,5.85
2018-05-02T03:45:58.430Z,5.80
2018-05-02T03:46:58.333Z,5.78
2018-05-02T03:47:58.241Z,5.83
2018-05-02T03:48:58.190Z,6.01
2018-05-02T03:49:58.050Z,5.93
2018-05-02T03:50:57.952Z,5.95
2018-05-02T03:51:57.856Z,5.99
2018-05-02T03:52:57.848Z,5.96
2018-05-02T03:53:57.669Z,5.99
2018-05-02T03:54:57.601Z,6.02
2018-05-02T03:55:57.484Z,6.03
2018-05-02T03:56:57.380Z,6.02
2018-05-02T03:57:57.296Z,6.05
2018-05-02T03:58:57.284Z,6.03
2018-05-02T03:59:57.126Z,5.99
2018-05-02T04:00:57.000Z,6.13
2018-05-02T04:01:56.905Z,6.17
2018-05-02T04:02:56.810Z,6.10
2018-05-02T04:03:56.718Z,6.06
2018-05-02T04:04:56.623Z,6.16
2018-05-02T04:05:56.557Z,6.14
2018-05-02T04:06:56.433Z,6.11
2018-05-02T04:07:56.332Z,6.21
2018-05-02T04:08:56.242Z,6.20
2018-05-02T04:09:56.146Z,6.20
2018-05-02T04:10:56.088Z,6.16
2018-05-02T04:11:55.955Z,6.28
2018-05-02T04:12:55.969Z,6.20
2018-05-02T04:13:55.772Z,6.13
2018-05-02T04:14:55.672Z,6.10
2018-05-02T04:15:55.621Z,6.13
2018-05-02T04:16:55.479Z,6.16
2018-05-02T04:17:55.386Z,6.10
2018-05-02T04:18:55.291Z,6.11
2018-05-02T04:19:55.290Z,6.17
2018-05-02T04:20:55.099Z,6.16
2018-05-02T04:21:55.039Z,6.20
2018-05-02T04:22:54.910Z,6.24
2018-05-02T04:23:54.818Z,6.21
2018-05-02T04:24:54.722Z,6.25
2018-05-02T04:25:54.627Z,6.28
2018-05-02T04:26:54.670Z,6.27
2018-05-02T04:27:54.435Z,6.17
2018-05-02T04:28:54.342Z,6.27
2018-05-02T04:29:54.246Z,6.28
2018-05-02T04:30:54.151Z,6.25
2018-05-02T04:31:54.054Z,6.28
2018-05-02T04:32:54.000Z,6.35
2018-05-02T04:33:53.964Z,6.38
2018-05-02T04:34:53.768Z,6.33
2018-05-02T04:35:53.676Z,6.42
2018-05-02T04:36:53.581Z,6.35
2018-05-02T04:37:53.516Z,6.43
2018-05-02T04:38:53.388Z,6.40
2018-05-02T04:39:53.298Z,6.50
2018-05-02T04:40:53.292Z,6.36
2018-05-02T04:41:53.109Z,6.42
2018-05-02T04:42:53.046Z,6.38
2018-05-02T04:43:52.919Z,6.42
2018-05-02T04:44:52.821Z,6.43
2018-05-02T04:45:52.727Z,6.51
2018-05-02T04:46:52.633Z,6.45
2018-05-02T04:47:52.649Z,6.40
2018-05-02T04:48:52.472Z,6.40
2018-05-02T04:49:52.349Z,6.43
2018-05-02T04:50:52.252Z,6.51
2018-05-02T04:51:52.172Z,6.51
2018-05-02T04:52:52.064Z,6.60
2018-05-02T04:53:52.000Z,6.65
2018-05-02T04:54:51.969Z,6.65
2018-05-02T04:55:51.779Z,6.61
2018-05-02T04:56:51.682Z,6.64
2018-05-02T04:57:51.590Z,6.69
2018-05-02T04:58:51.524Z,6.69
2018-05-02T04:59:51.399Z,6.73
2018-05-02T05:00:51.304Z,6.73
2018-05-02T05:01:51.327Z,6.79
2018-05-02T05:02:51.117Z,6.78
2018-05-02T05:03:51.053Z,6.91
2018-05-02T05:04:50.926Z,6.86
2018-05-02T05:05:50.833Z,6.90
2018-05-02T05:06:50.734Z,6.86
2018-05-02T05:07:50.640Z,6.99
2018-05-02T05:08:50.675Z,7.00
2018-05-02T05:09:50.452Z,7.07
2018-05-02T05:10:50.357Z,7.05
2018-05-02T05:11:50.262Z,7.09
2018-05-02T05:12:50.168Z,7.08
2018-05-02T05:13:50.101Z,7.11
2018-05-02T05:14:49.979Z,7.05
2018-05-02T05:15:49.983Z,7.14
2018-05-02T05:16:49.792Z,7.12
2018-05-02T05:17:49.696Z,7.12
2018-05-02T05:18:49.632Z,7.12
2018-05-02T05:19:49.506Z,7.12
2018-05-02T05:20:49.415Z,7.18
2018-05-02T05:21:49.318Z,7.48
2018-05-02T05:22:49.335Z,7.52
2018-05-02T05:23:49.162Z,7.84
2018-05-02T05:24:49.037Z,7.95
2018-05-02T05:25:48.944Z,8.20
2018-05-02T05:26:48.849Z,8.31
2018-05-02T05:27:48.755Z,8.42
2018-05-02T05:28:48.780Z,8.55
2018-05-02T05:29:48.563Z,8.61
2018-05-02T05:30:48.469Z,8.76
2018-05-02T05:31:48.376Z,8.73
2018-05-02T05:32:48.282Z,8.82
2018-05-02T05:33:48.221Z,8.83
2018-05-02T05:34:48.093Z,8.86
2018-05-02T05:35:47.998Z,8.88
2018-05-02T05:36:47.906Z,8.91
2018-05-02T05:37:47.810Z,8.85
2018-05-02T05:38:47.747Z,8.91
2018-05-02T05:39:47.623Z,8.89
2018-05-02T05:40:47.527Z,8.79
2018-05-02T05:41:47.439Z,8.82
2018-05-02T05:42:47.341Z,8.86
2018-05-02T05:43:47.279Z,8.89
2018-05-02T05:44:47.150Z,8.88
2018-05-02T05:45:47.061Z,8.94
2018-05-02T05:46:47.018Z,8.94
2018-05-02T05:47:46.870Z,8.86
2018-05-02T05:48:46.804Z,8.93
2018-05-02T05:49:46.685Z,9.00
2018-05-02T05:50:46.586Z,8.98
2018-05-02T05:51:46.495Z,8.96
2018-05-02T05:52:46.400Z,8.96
2018-05-02T05:53:46.346Z,9.06
2018-05-02T05:54:46.213Z,9.13
2018-05-02T05:55:46.118Z,9.10
2018-05-02T05:56:46.022Z,9.10
2018-05-02T05:57:45.931Z,9.17
2018-05-02T05:58:45.838Z,9.15
2018-05-02T05:59:45.773Z,9.24
2018-05-02T06:00:45.693Z,9.23
2018-05-02T06:01:45.555Z,9.23
2018-05-02T06:02:45.461Z,9.32
2018-05-02T06:03:45.374Z,9.34
2018-05-02T06:04:45.305Z,9.32
2018-05-02T06:05:45.179Z,9.44
2018-05-02T06:06:45.115Z,9.45
2018-05-02T06:07:44.992Z,9.50
2018-05-02T06:08:44.981Z,9.56
2018-05-02T06:09:44.836Z,9.70
2018-05-02T06:10:44.711Z,9.68
2018-05-02T06:11:44.619Z,9.67
2018-05-02T06:12:44.525Z,9.74
2018-05-02T06:13:44.430Z,9.81
2018-05-02T06:14:44.368Z,9.86
2018-05-02T06:15:44.245Z,9.81
2018-05-02T06:16:44.150Z,9.86
2018-05-02T06:17:44.158Z,9.91
2018-05-02T06:18:44.025Z,9.95
2018-05-02T06:19:43.903Z,9.95
2018-05-02T06:20:43.777Z,9.99
2018-05-02T06:21:43.687Z,10.14
2018-05-02T06:22:43.592Z,10.22
2018-05-02T06:23:43.497Z,10.31
2018-05-02T06:24:43.533Z,10.26
2018-05-02T06:25:43.312Z,10.26
2018-05-02T06:26:43.218Z,10.36
2018-05-02T06:27:43.127Z,10.39
2018-05-02T06:28:43.033Z,10.58
2018-05-02T06:29:42.973Z,10.66
2018-05-02T06:30:42.850Z,10.65
2018-05-02T06:31:42.933Z,10.44
2018-05-02T06:32:42.662Z,10.42
2018-05-02T06:33:42.568Z,10.52
2018-05-02T06:34:42.506Z,10.57
2018-05-02T06:35:42.383Z,10.49
2018-05-02T06:36:42.291Z,10.36
2018-05-02T06:37:42.253Z,10.34
2018-05-02T06:38:42.206Z,10.28
2018-05-02T06:39:42.048Z,10.17
2018-05-02T06:40:41.922Z,10.28
2018-05-02T06:41:41.831Z,10.24
2018-05-02T06:42:41.737Z,10.24
2018-05-02T06:43:41.643Z,10.28
2018-05-02T06:44:41.580Z,10.28
2018-05-02T06:45:41.553Z,10.24
2018-05-02T06:46:41.371Z,10.22
2018-05-02T06:47:41.279Z,10.11
2018-05-02T06:48:41.185Z,10.10
2018-05-02T06:49:41.119Z,10.06
2018-05-02T06:50:40.996Z,10.14
2018-05-02T06:51:40.905Z,10.11
2018-05-02T06:52:40.909Z,10.11
2018-05-02T06:53:40.721Z,10.18
2018-05-02T06:54:40.736Z,10.22
2018-05-02T06:55:40.534Z,10.17
2018-05-02T06:56:40.439Z,10.20
2018-05-02T06:57:40.351Z,10.13
2018-05-02T06:58:40.257Z,10.16
2018-05-02T06:59:40.288Z,10.14
2018-05-02T07:00:40.070Z,10.28
2018-05-02T07:01:39.980Z,10.28
2018-05-02T07:02:39.884Z,10.28
2018-05-02T07:03:39.794Z,10.43
2018-05-02T07:04:39.731Z,10.38
2018-05-02T07:05:39.608Z,10.46
2018-05-02T07:06:39.610Z,10.55
2018-05-02T07:07:39.423Z,10.57
2018-05-02T07:08:39.331Z,10.75
2018-05-02T07:09:39.240Z,10.63
2018-05-02T07:10:39.173Z,10.62
2018-05-02T07:11:39.050Z,10.76
2018-05-02T07:12:38.958Z,10.76
2018-05-02T07:13:39.069Z,10.94
2018-05-02T07:14:38.772Z,10.95
2018-05-02T07:15:38.713Z,10.95
2018-05-02T07:16:38.588Z,11.06
2018-05-02T07:17:38.497Z,11.16
2018-05-02T07:18:38.401Z,11.12
2018-05-02T07:19:38.313Z,11.28
2018-05-02T07:20:38.259Z,11.28
2018-05-02T07:21:38.127Z,11.33
2018-05-02T07:22:38.033Z,11.35
2018-05-02T07:23:37.940Z,11.33
2018-05-02T07:24:37.868Z,11.20
2018-05-02T07:25:37.791Z,11.26
2018-05-02T07:26:37.665Z,11.17
2018-05-02T07:27:37.574Z,11.16
2018-05-02T07:28:37.484Z,11.23
2018-05-02T07:29:37.390Z,11.16
2018-05-02T07:30:37.325Z,11.24
2018-05-02T07:31:37.207Z,11.19
2018-05-02T07:32:37.273Z,11.31
2018-05-02T07:33:37.028Z,11.30
2018-05-02T07:34:36.947Z,11.45
2018-05-02T07:35:36.869Z,11.44
2018-05-02T07:36:36.747Z,11.39
2018-05-02T07:37:36.654Z,11.49
2018-05-02T07:38:36.563Z,11.59
2018-05-02T07:39:36.473Z,11.56
2018-05-02T07:40:36.412Z,11.59
2018-05-02T07:41:36.292Z,11.72
2018-05-02T07:42:36.199Z,11.59
2018-05-02T07:43:36.108Z,11.69
2018-05-02T07:44:36.016Z,11.69
2018-05-02T07:45:35.954Z,11.82
2018-05-02T07:46:35.834Z,11.84
2018-05-02T07:47:35.743Z,11.69
2018-05-02T07:48:35.706Z,11.69
2018-05-02T07:49:35.560Z,11.82
2018-05-02T07:50:35.499Z,11.74
2018-05-02T07:51:35.381Z,11.79
2018-05-02T07:52:35.287Z,11.96
2018-05-02T07:53:35.199Z,12.00
2018-05-02T07:54:35.104Z,12.00
2018-05-02T07:55:35.045Z,12.03
2018-05-02T07:56:35.015Z,12.13
2018-05-02T07:57:34.833Z,12.12
2018-05-02T07:58:34.742Z,12.11
2018-05-02T07:59:34.653Z,12.11
2018-05-02T08:00:34.592Z,12.07
2018-05-02T08:01:34.470Z,12.11
2018-05-02T08:02:34.381Z,12.05
2018-05-02T08:03:34.292Z,12.05
2018-05-02T08:04:34.198Z,12.01
2018-05-02T08:05:34.141Z,12.11
2018-05-02T08:06:34.014Z,12.05
2018-05-02T08:07:33.923Z,12.12
2018-05-02T08:08:33.840Z,12.15
2018-05-02T08:09:33.746Z,12.18
2018-05-02T08:10:33.685Z,12.22
2018-05-02T08:11:33.563Z,12.34
2018-05-02T08:12:33.473Z,12.37
2018-05-02T08:13:33.384Z,12.40
2018-05-02T08:14:33.340Z,12.51
2018-05-02T08:15:33.345Z,12.49
2018-05-02T08:16:33.147Z,12.63
2018-05-02T08:17:33.024Z,12.66
2018-05-02T08:18:32.931Z,12.69
2018-05-02T08:19:32.842Z,12.77
2018-05-02T08:20:32.782Z,12.81
2018-05-02T08:21:32.673Z,12.87
2018-05-02T08:22:32.665Z,12.88
2018-05-02T08:23:32.480Z,12.94
2018-05-02T08:24:32.392Z,12.98
2018-05-02T08:25:32.306Z,12.88
2018-05-02T08:26:32.244Z,12.92
2018-05-02T08:27:32.124Z,12.84
2018-05-02T08:28:32.035Z,12.85
2018-05-02T08:29:32.037Z,12.79
2018-05-02T08:30:31.854Z,12.76
2018-05-02T08:31:31.797Z,12.87
2018-05-02T08:32:31.674Z,12.74
2018-05-02T08:33:31.589Z,12.89
2018-05-02T08:34:31.496Z,12.91
2018-05-02T08:35:31.407Z,13.03
2018-05-02T08:36:31.459Z,13.03
2018-05-02T08:37:31.224Z,13.13
2018-05-02T08:38:31.137Z,13.14
2018-05-02T08:39:31.049Z,13.16
2018-05-02T08:40:30.957Z,13.16
2018-05-02T08:41:30.901Z,13.16
2018-05-02T08:42:30.778Z,13.28
2018-05-02T08:43:30.787Z,13.32
2018-05-02T08:44:30.600Z,13.35
2018-05-02T08:45:30.513Z,13.48
2018-05-02T08:46:30.451Z,13.50
2018-05-02T08:47:30.350Z,13.61
2018-05-02T08:48:30.243Z,13.73
2018-05-02T08:49:30.153Z,13.81
2018-05-02T08:50:30.161Z,13.87
2018-05-02T08:51:30.009Z,13.93
2018-05-02T08:52:29.888Z,14.01
2018-05-02T08:53:29.802Z,14.11
2018-05-02T08:54:29.707Z,14.36
2018-05-02T08:55:29.617Z,14.57
2018-05-02T08:56:29.560Z,14.71
2018-05-02T08:57:29.599Z,14.74
2018-05-02T08:58:29.353Z,14.79
2018-05-02T08:59:29.265Z,14.93
2018-05-02T09:00:29.177Z,14.79
2018-05-02T09:01:29.122Z,14.86
2018-05-02T09:02:28.999Z,15.09
2018-05-02T09:03:28.913Z,15.05
2018-05-02T09:04:28.922Z,15.00
2018-05-02T09:05:28.735Z,15.13
2018-05-02T09:06:28.681Z,15.18
2018-05-02T09:07:28.559Z,15.22
2018-05-02T09:08:28.472Z,15.16
2018-05-02T09:09:28.384Z,15.19
2018-05-02T09:10:28.300Z,15.18
2018-05-02T09:11:28.239Z,15.22
2018-05-02T09:12:28.125Z,15.28
2018-05-02T09:13:28.034Z,15.37
2018-05-02T09:14:27.948Z,15.52
2018-05-02T09:15:27.873Z,15.64
2018-05-02T09:16:27.810Z,15.59
2018-05-02T09:17:27.685Z,15.60
2018-05-02T09:18:27.601Z,15.77
2018-05-02T09:19:27.510Z,16.06
2018-05-02T09:20:27.422Z,16.23
2018-05-02T09:21:27.369Z,16.33
2018-05-02T09:22:27.251Z,16.47
2018-05-02T09:23:27.164Z,16.30
2018-05-02T09:24:27.075Z,16.30
2018-05-02T09:25:26.991Z,16.52
2018-05-02T09:26:26.932Z,16.91
2018-05-02T09:27:26.814Z,16.85
2018-05-02T09:28:26.729Z,16.75
2018-05-02T09:29:26.641Z,16.92
2018-05-02T09:30:26.556Z,16.84
2018-05-02T09:31:26.501Z,16.87
2018-05-02T09:32:26.381Z,16.91
2018-05-02T09:33:26.296Z,16.65
2018-05-02T09:34:26.210Z,16.80
2018-05-02T09:35:26.128Z,17.00
2018-05-02T09:36:26.099Z,17.22
2018-05-02T09:37:25.955Z,17.30
2018-05-02T09:38:25.866Z,17.49
2018-05-02T09:39:25.780Z,17.51
2018-05-02T09:40:25.695Z,17.18
2018-05-02T09:41:25.612Z,17.35
2018-05-02T09:42:25.555Z,17.54
2018-05-02T09:43:25.438Z,17.66
2018-05-02T09:44:25.355Z,17.79
2018-05-02T09:45:25.268Z,18.44
2018-05-02T09:46:25.185Z,18.93
2018-05-02T09:47:25.128Z,19.27
2018-05-02T09:48:25.021Z,19.01
2018-05-02T09:49:24.951Z,19.02
2018-05-02T09:50:24.842Z,19.06
2018-05-02T09:51:24.757Z,18.65
2018-05-02T09:52:24.714Z,18.65
2018-05-02T09:53:24.588Z,18.75
2018-05-02T09:54:24.502Z,18.46
2018-05-02T09:55:24.420Z,17.95
2018-05-02T09:56:24.335Z,18.13
2018-05-02T09:57:24.284Z,18.72
2018-05-02T09:58:24.164Z,18.82
2018-05-02T09:59:24.080Z,18.86
2018-05-02T10:00:24.002Z,18.44
2018-05-02T10:01:23.913Z,18.83
2018-05-02T10:02:23.925Z,19.02
2018-05-02T10:03:23.761Z,18.96
2018-05-02T10:04:23.695Z,18.84
2018-05-02T10:05:23.579Z,18.04
2018-05-02T10:06:23.493Z,18.79
2018-05-02T10:07:23.631Z,19.12
2018-05-02T10:08:23.326Z,19.43
2018-05-02T10:09:23.239Z,19.72
2018-05-02T10:10:23.159Z,20.02
2018-05-02T10:11:23.077Z,20.22
2018-05-02T10:12:23.061Z,20.61
2018-05-02T10:13:22.908Z,20.57
2018-05-02T10:14:22.828Z,20.07
2018-05-02T10:15:22.741Z,20.72
2018-05-02T10:16:22.659Z,21.12
2018-05-02T10:17:22.607Z,21.08
2018-05-02T10:18:22.503Z,21.64
2018-05-02T10:19:22.411Z,21.68
2018-05-02T10:20:22.327Z,21.16
2018-05-02T10:21:22.246Z,20.75
2018-05-02T10:22:22.193Z,21.33
2018-05-02T10:23:22.080Z,21.49
2018-05-02T10:24:22.005Z,20.76
2018-05-02T10:25:21.916Z,20.72
2018-05-02T10:26:21.873Z,20.56
2018-05-02T10:27:21.784Z,20.44
2018-05-02T10:28:21.764Z,20.25
2018-05-02T10:29:21.591Z,20.37
2018-05-02T10:30:21.507Z,20.88
2018-05-02T10:31:21.431Z,20.68
2018-05-02T10:32:21.380Z,20.48
2018-05-02T10:33:21.265Z,19.85
2018-05-02T10:34:21.183Z,19.72
2018-05-02T10:35:21.192Z,19.94
2018-05-02T10:36:21.018Z,20.02
2018-05-02T10:37:20.969Z,20.20
2018-05-02T10:38:20.858Z,19.70
2018-05-02T10:39:20.776Z,20.16
2018-05-02T10:40:20.690Z,19.49
2018-05-02T10:41:20.615Z,19.34
2018-05-02T10:42:20.565Z,19.86
2018-05-02T10:43:20.452Z,19.82
2018-05-02T10:44:20.367Z,19.68
2018-05-02T10:45:20.287Z,20.33
2018-05-02T10:46:20.206Z,20.57
2018-05-02T10:47:20.153Z,20.66
2018-05-02T10:48:20.044Z,20.73
2018-05-02T10:49:20.073Z,20.79
2018-05-02T10:50:19.928Z,20.88
2018-05-02T10:51:19.802Z,21.09
2018-05-02T10:52:19.748Z,21.27
2018-05-02T10:53:19.640Z,20.73
2018-05-02T10:54:19.555Z,21.03
2018-05-02T10:55:19.474Z,21.00
2018-05-02T10:56:19.485Z,20.90
2018-05-02T10:57:19.315Z,21.11
2018-05-02T10:58:19.265Z,20.91
2018-05-02T10:59:19.152Z,21.08
2018-05-02T11:00:19.092Z,21.61
2018-05-02T11:01:18.991Z,21.83
2018-05-02T11:02:18.914Z,22.30
2018-05-02T11:03:18.954Z,21.70
2018-05-02T11:04:18.748Z,21.89
2018-05-02T11:05:18.667Z,22.41
2018-05-02T11:06:18.588Z,22.42
2018-05-02T11:07:18.509Z,22.89
2018-05-02T11:08:18.514Z,22.99
2018-05-02T11:09:18.441Z,22.59
2018-05-02T11:10:18.265Z,21.16
2018-05-02T11:11:18.185Z,20.25
2018-05-02T11:12:18.118Z,20.31
2018-05-02T11:13:18.060Z,20.83
2018-05-02T11:14:17.946Z,21.03
2018-05-02T11:15:17.866Z,21.26
2018-05-02T11:16:17.786Z,21.96
2018-05-02T11:17:17.704Z,22.35
2018-05-02T11:18:17.655Z,22.86
2018-05-02T11:19:17.544Z,22.84
2018-05-02T11:20:17.465Z,21.96
2018-05-02T11:21:17.386Z,21.36
2018-05-02T11:22:17.308Z,20.23
2018-05-02T11:23:17.257Z,20.12
2018-05-02T11:24:17.142Z,19.58
2018-05-02T11:25:17.064Z,19.82
2018-05-02T11:26:16.984Z,19.58
2018-05-02T11:27:16.904Z,19.55
2018-05-02T11:28:16.928Z,19.70
2018-05-02T11:29:16.741Z,19.90
2018-05-02T11:30:16.661Z,19.89
2018-05-02T11:31:16.581Z,19.82
2018-05-02T11:32:16.499Z,19.80
2018-05-02T11:33:16.451Z,19.47
2018-05-02T11:34:16.338Z,19.10
2018-05-02T11:35:16.259Z,19.10
2018-05-02T11:36:16.175Z,19.05
2018-05-02T11:37:16.098Z,19.28
2018-05-02T11:38:16.062Z,19.30
2018-05-02T11:39:15.930Z,19.40
2018-05-02T11:40:15.848Z,19.49
2018-05-02T11:41:15.767Z,19.47
2018-05-02T11:42:15.685Z,19.68
2018-05-02T11:43:15.635Z,19.72
2018-05-02T11:44:15.589Z,19.64
2018-05-02T11:45:15.439Z,20.19
2018-05-02T11:46:15.444Z,20.35
2018-05-02T11:47:15.276Z,20.38
2018-05-02T11:48:15.190Z,20.40
2018-05-02T11:49:15.138Z,20.71
2018-05-02T11:50:15.025Z,21.19
2018-05-02T11:51:14.943Z,21.55
2018-05-02T11:52:14.864Z,21.79
2018-05-02T11:53:14.780Z,21.64
2018-05-02T11:54:14.732Z,20.93
2018-05-02T11:55:14.617Z,20.12
2018-05-02T11:56:14.543Z,19.83
2018-05-02T11:57:14.454Z,19.64
2018-05-02T11:58:14.387Z,19.34
2018-05-02T11:59:14.319Z,19.38
2018-05-02T12:00:14.208Z,19.16
2018-05-02T12:01:14.124Z,19.07
2018-05-02T12:02:14.042Z,19.27
2018-05-02T12:03:14.550Z,19.55
2018-05-02T12:04:13.909Z,19.85
2018-05-02T12:05:13.891Z,20.23
2018-05-02T12:06:13.713Z,19.94
2018-05-02T12:07:13.630Z,19.92
2018-05-02T12:08:13.550Z,20.13
2018-05-02T12:09:13.499Z,20.38
2018-05-02T12:10:13.397Z,20.40
2018-05-02T12:11:13.300Z,20.10
2018-05-02T12:12:13.220Z,19.97
2018-05-02T12:13:13.139Z,19.46
2018-05-02T12:14:13.084Z,18.94
2018-05-02T12:15:12.971Z,18.74
2018-05-02T12:16:12.890Z,18.74
2018-05-02T12:17:12.805Z,18.74
2018-05-02T12:18:12.723Z,18.68
2018-05-02T12:19:12.765Z,18.68
2018-05-02T12:20:12.558Z,18.79
2018-05-02T12:21:12.476Z,18.76
2018-05-02T12:22:12.393Z,18.90
2018-05-02T12:23:12.307Z,18.83
2018-05-02T12:24:12.252Z,18.78
2018-05-02T12:25:12.141Z,18.69
2018-05-02T12:26:12.149Z,18.60
2018-05-02T12:27:11.976Z,18.49
2018-05-02T12:28:11.891Z,18.39
2018-05-02T12:29:11.844Z,18.41
2018-05-02T12:30:11.725Z,18.59
2018-05-02T12:31:11.639Z,18.68
2018-05-02T12:32:11.565Z,18.82
2018-05-02T12:33:11.614Z,18.57
2018-05-02T12:34:11.391Z,18.54
2018-05-02T12:35:11.336Z,18.50
2018-05-02T12:36:11.222Z,18.57
2018-05-02T12:37:11.141Z,18.57
2018-05-02T12:38:11.054Z,18.79
2018-05-02T12:39:10.971Z,18.99
2018-05-02T12:40:11.009Z,18.90
2018-05-02T12:41:10.799Z,18.97
2018-05-02T12:42:10.716Z,19.13
2018-05-02T12:43:10.630Z,19.39
2018-05-02T12:44:10.550Z,19.50
2018-05-02T12:45:10.496Z,19.71
2018-05-02T12:46:10.382Z,19.94
2018-05-02T12:47:10.393Z,20.22
2018-05-02T12:48:10.215Z,20.46
2018-05-02T12:49:10.129Z,20.40
2018-05-02T12:50:10.073Z,20.35
2018-05-02T12:51:10.031Z,20.35
2018-05-02T12:52:09.876Z,19.92
2018-05-02T12:53:09.792Z,19.90
2018-05-02T12:54:09.823Z,20.12
2018-05-02T12:55:09.656Z,19.90
2018-05-02T12:56:09.589Z,19.25
2018-05-02T12:57:09.467Z,19.07
2018-05-02T12:58:09.373Z,18.89
2018-05-02T12:59:09.289Z,18.78
2018-05-02T13:00:09.237Z,18.59
2018-05-02T13:01:09.218Z,18.53
2018-05-02T13:02:09.036Z,18.39
2018-05-02T13:03:08.952Z,18.23
2018-05-02T13:04:08.872Z,18.44